ADDS METAR Data INFO
IDs: Format: Raw Decoded Include TAF

Data at: 1408 UTC 12 Dec 2017

KM33 121355Z AUTO 33013G18KT 6SM BR BKN014 OVC020 03/01 A3005 RMK A01
KM33 121335Z AUTO 30008G16KT 270V330 6SM HZ FEW015 BKN021 OVC026 04/01 A3005 RMK A01
KM33 121315Z AUTO 31009G18KT 8SM BKN024 OVC037 05/01 A3004 RMK A01
KM33 121255Z AUTO 31010G18KT 10SM SCT025 OVC035 05/M00 A3003 RMK A01
KM33 121235Z AUTO 32013G19KT 10SM SCT028 OVC034 05/M00 A3002 RMK A01
KM33 121215Z AUTO 32012KT 10SM SCT025 BKN030 OVC039 05/00 A3001 RMK A01
KM33 121155Z AUTO 32015KT 10SM OVC024 05/01 A3000 RMK A01
KM33 121135Z AUTO 31017G23KT 260V330 10SM OVC022 05/01 A2999 RMK A01
KM33 121115Z AUTO 32013G23KT 8SM OVC024 05/02 A2998 RMK A01
KM33 121055Z AUTO 31011G24KT 10SM BKN027 OVC034 06/01 A2997 RMK A01
KM33 121035Z AUTO 32011G19KT 10SM BKN030 OVC036 07/01 A2996 RMK A01
KM33 121015Z AUTO 32010G26KT 10SM OVC030 07/01 A2996 RMK A01
KM33 120955Z AUTO 33012G19KT 10SM BKN034 OVC040 07/00 A2996 RMK A01
KM33 120935Z AUTO 30009G20KT 270V330 10SM BKN036 BKN046 OVC050 07/00 A2996 RMK A01
KM33 120915Z AUTO 31011G21KT 10SM FEW041 BKN050 OVC055 08/00 A2995 RMK A01
KM33 120855Z AUTO 31009G16KT 10SM BKN047 OVC050 08/M00 A2995 RMK A01
KM33 120835Z AUTO 31013G20KT 10SM BKN050 BKN055 OVC120 08/M01 A2994 RMK A01
KM33 120815Z AUTO 32009KT 10SM SCT050 BKN060 08/M01 A2994 RMK A01
KM33 120755Z AUTO 32007G12KT 10SM OVC055 09/M01 A2994 RMK A01
KM33 120735Z AUTO 29009G15KT 10SM BKN055 BKN095 BKN120 09/M02 A2993 RMK A01
KM33 120715Z AUTO VRB06G11KT 10SM SCT095 BKN120 09/M02 A2993 RMK A01
KM33 120655Z AUTO VRB03KT 10SM FEW100 BKN120 09/M02 A2992 RMK A01
KM33 120635Z AUTO 30004KT 10SM OVC120 08/M03 A2992 RMK A01
KM33 120615Z AUTO 00000KT 10SM BKN120 08/M03 A2992 RMK A01
KM33 120555Z AUTO 29004KT 10SM FEW050 FEW060 SCT120 09/M02 A2992 RMK A01
KM33 120535Z AUTO VRB05KT 10SM FEW050 BKN110 09/M02 A2992 RMK A01
KM33 120515Z AUTO 28004G10KT 10SM FEW036 SCT043 BKN110 09/M02 A2992 RMK A01
KM33 120455Z AUTO VRB05G12KT 10SM SCT035 BKN043 OVC120 10/M02 A2992 RMK A01
KM33 120435Z AUTO 31008KT 260V320 10SM SCT034 SCT043 BKN055 10/M02 A2992 RMK A01
KM33 120415Z AUTO VRB05G12KT 10SM FEW042 BKN055 10/M01 A2992 RMK A01
KM33 120355Z AUTO 32008KT 10SM FEW049 SCT060 11/M01 A2991 RMK A01
KM33 120335Z AUTO VRB06G12KT 10SM BKN060 11/M00 A2990 RMK A01
KM33 120315Z AUTO 23005G10KT 10SM BKN055 12/M00 A2988 RMK A01
KM33 120255Z AUTO 21007KT 10SM CLR 12/M00 A2987 RMK A01
KM33 120235Z AUTO 21005KT 10SM CLR 11/M01 A2987 RMK A01
KM33 120215Z AUTO 20005KT 10SM CLR 11/M01 A2987 RMK A01
KM33 120155Z AUTO 19006KT 10SM CLR 11/M01 A2987 RMK A01
KM33 120135Z AUTO VRB04KT 10SM CLR 11/M01 A2987 RMK A01
KM33 120115Z AUTO 20004KT 10SM CLR 12/M01 A2988 RMK A01
KM33 120055Z AUTO 19004KT 10SM CLR 12/M01 A2988 RMK A01
KM33 120035Z AUTO VRB04KT 10SM CLR 12/M01 A2988 RMK A01
KM33 120015Z AUTO 00000KT 10SM CLR 12/M01 A2988 RMK A01
KM33 112355Z AUTO 21005KT 10SM CLR 13/M01 A2988 RMK A01
KM33 112335Z AUTO 20007G15KT 10SM CLR 13/M00 A2986 RMK A01
KM33 112315Z AUTO 18005G12KT 10SM CLR 13/M00 A2986 RMK A01
KM33 112255Z AUTO 19007G13KT 150V210 10SM CLR 14/M01 A2986 RMK A01
KM33 112235Z AUTO 19006G13KT 10SM CLR 14/M01 A2986 RMK A01
KM33 112215Z AUTO 20010KT 170V230 10SM CLR 14/M01 A2987 RMK A01
KM33 112155Z AUTO 19007G16KT 10SM CLR 15/M01 A2988 RMK A01
KM33 112135Z AUTO 19011G19KT 10SM CLR 15/M01 A2989 RMK A01
KM33 112115Z AUTO 20010G17KT 10SM CLR 15/M01 A2991 RMK A01
KM33 112055Z AUTO 19010G18KT 10SM CLR 15/M01 A2991 RMK A01
KM33 112035Z AUTO 17009KT 150V220 10SM CLR 15/M01 A2992 RMK A01
KM33 112015Z AUTO 19008G13KT 170V230 10SM CLR 15/M01 A2994 RMK A01
KM33 111955Z AUTO 21010G17KT 10SM CLR 15/M01 A2996 RMK A01
KM33 111935Z AUTO VRB06G12KT 10SM CLR 15/M01 A2996 RMK A01
KM33 111915Z AUTO 22008KT 10SM CLR 15/M01 A2997 RMK A01
KM33 111855Z AUTO 20007G12KT 160V240 10SM CLR 14/M01 A3000 RMK A01
KM33 111835Z AUTO 23008G13KT 190V260 10SM CLR 14/M01 A3001 RMK A01
KM33 111815Z AUTO 20008G14KT 180V240 10SM CLR 13/M01 A3003 RMK A01
KM33 111755Z AUTO 20006KT 10SM CLR 12/M01 A3005 RMK A01
KM33 111735Z AUTO VRB06G11KT 10SM CLR 11/M01 A3007 RMK A01
KM33 111715Z AUTO 22006G12KT 10SM CLR 11/M01 A3009 RMK A01
KM33 111655Z AUTO 19005G11KT 10SM CLR 10/M01 A3010 RMK A01
KM33 111635Z AUTO VRB05KT 10SM CLR 09/M01 A3013 RMK A01
KM33 111615Z AUTO VRB05KT 10SM CLR 08/M01 A3012 RMK A01
KM33 111555Z AUTO 23004KT 10SM CLR 07/M01 A3013 RMK A01
KM33 111535Z AUTO VRB04KT 10SM CLR 06/M01 A3015 RMK A01
KM33 111515Z AUTO 00000KT 10SM CLR 04/M01 A3014 RMK A01
KM33 111455Z AUTO 15003KT 10SM CLR 03/M01 A3014 RMK A01
KM33 111435Z AUTO 00000KT 10SM CLR 01/M02 A3015 RMK A01
KM33 111415Z AUTO 00000KT 10SM CLR 00/M03 A3015 RMK A01
KM33 111355Z AUTO 00000KT 10SM CLR M01/M04 A3016 RMK A01
KM33 111335Z AUTO 00000KT 10SM CLR M03/M04 A3017 RMK A01
KM33 111315Z AUTO 00000KT 10SM CLR M04/M05 A3018 RMK A01
KM33 111255Z AUTO 00000KT 10SM CLR M04/M06 A3017 RMK A01
KM33 111235Z AUTO 00000KT 10SM CLR M05/M06 A3016 RMK A01
KM33 111215Z AUTO 00000KT 10SM CLR M04/M06 A3017 RMK A01
KM33 111155Z AUTO 00000KT 10SM CLR M04/M06 A3017 RMK A01
KM33 111135Z AUTO 00000KT 10SM CLR M04/M06 A3017 RMK A01
KM33 111115Z AUTO 00000KT 10SM CLR M04/M06 A3017 RMK A01
KM33 111055Z AUTO 00000KT 10SM CLR M04/M06 A3017 RMK A01
KM33 111035Z AUTO 00000KT 10SM CLR M04/M05 A3017 RMK A01
KM33 111015Z AUTO 00000KT 10SM CLR M03/M05 A3017 RMK A01
KM33 110955Z AUTO 00000KT 10SM CLR M04/M05 A3017 RMK A01
KM33 110935Z AUTO 00000KT 10SM CLR M03/M05 A3018 RMK A01
KM33 110915Z AUTO 00000KT 10SM CLR M03/M05 A3018 RMK A01
KM33 110855Z AUTO 00000KT 10SM CLR M03/M05 A3018 RMK A01
KM33 110835Z AUTO 00000KT 10SM FEW033 M03/M05 A3019 RMK A01
KM33 110815Z AUTO 00000KT 10SM CLR M02/M05 A3019 RMK A01
KM33 110755Z AUTO 00000KT 10SM CLR M02/M05 A3018 RMK A01
KM33 110735Z AUTO 00000KT 10SM CLR M02/M04 A3019 RMK A01
KM33 110715Z AUTO 00000KT 10SM CLR M02/M05 A3019 RMK A01
KM33 110655Z AUTO 00000KT 10SM CLR M02/M05 A3018 RMK A01
KM33 110635Z AUTO 00000KT 10SM CLR M01/M04 A3018 RMK A01
KM33 110615Z AUTO 00000KT 10SM CLR M01/M04 A3018 RMK A01
KM33 110555Z AUTO 00000KT 10SM CLR M00/M05 A3019 RMK A01
KM33 110535Z AUTO 00000KT 10SM CLR 00/M05 A3019 RMK A01
KM33 110515Z AUTO 00000KT 10SM CLR 00/M05 A3019 RMK A01
KM33 110455Z AUTO 00000KT 10SM CLR 01/M05 A3019 RMK A01
KM33 110435Z AUTO 00000KT 10SM CLR 01/M05 A3020 RMK A01
KM33 110415Z AUTO 00000KT 10SM CLR 02/M05 A3020 RMK A01
KM33 110355Z AUTO 00000KT 10SM CLR 03/M05 A3019 RMK A01
KM33 110335Z AUTO 00000KT 10SM CLR 03/M05 A3019 RMK A01
KM33 110315Z AUTO 00000KT 10SM CLR 03/M05 A3019 RMK A01
KM33 110255Z AUTO 18003KT 10SM CLR 03/M05 A3018 RMK A01
KM33 110235Z AUTO 00000KT 10SM CLR 02/M05 A3018 RMK A01
KM33 110215Z AUTO 00000KT 10SM CLR 03/M05 A3018 RMK A01